createdAt,value
2018-05-23T00:00:36.432Z,14.53
2018-05-23T00:01:41.998Z,14.51
2018-05-23T00:02:48.264Z,14.58
2018-05-23T00:03:53.247Z,14.58
2018-05-23T00:04:57.926Z,14.52
2018-05-23T00:06:02.553Z,14.42
2018-05-23T00:07:07.870Z,14.16
2018-05-23T00:08:13.788Z,14.02
2018-05-23T00:09:18.733Z,13.90
2018-05-23T00:10:23.300Z,13.91
2018-05-23T00:11:27.846Z,13.97
2018-05-23T00:12:32.391Z,14.04
2018-05-23T00:13:36.982Z,14.09
2018-05-23T00:14:41.524Z,14.11
2018-05-23T00:15:46.384Z,14.14
2018-05-23T00:16:51.060Z,14.18
2018-05-23T00:17:55.651Z,14.21
2018-05-23T00:19:00.341Z,14.28
2018-05-23T00:20:05.943Z,14.29
2018-05-23T00:21:10.595Z,14.33
2018-05-23T00:22:16.577Z,14.22
2018-05-23T00:23:24.309Z,14.21
2018-05-23T00:24:30.270Z,14.16
2018-05-23T00:25:35.323Z,14.11
2018-05-23T00:26:40.070Z,14.10
2018-05-23T00:27:45.589Z,14.08
2018-05-23T00:28:50.495Z,14.08
2018-05-23T00:29:55.110Z,14.13
2018-05-23T00:31:01.159Z,14.15
2018-05-23T00:32:05.764Z,14.17
2018-05-23T00:33:15.097Z,14.20
2018-05-23T00:34:19.984Z,14.24
2018-05-23T00:35:25.435Z,14.17
2018-05-23T00:36:31.342Z,14.14
2018-05-23T00:37:35.925Z,14.10
2018-05-23T00:38:42.265Z,14.07
2018-05-23T00:39:47.130Z,14.07
2018-05-23T00:40:52.745Z,14.13
2018-05-23T00:41:58.026Z,14.18
2018-05-23T00:43:02.778Z,14.21
2018-05-23T00:44:07.441Z,14.25
2018-05-23T00:45:12.037Z,14.14
2018-05-23T00:46:17.011Z,14.19
2018-05-23T00:47:21.591Z,14.16
2018-05-23T00:48:26.722Z,14.12
2018-05-23T00:49:31.334Z,14.09
2018-05-23T00:50:37.139Z,14.00
2018-05-23T00:51:42.180Z,13.94
2018-05-23T00:52:46.877Z,13.99
2018-05-23T00:53:51.513Z,13.87
2018-05-23T00:55:00.668Z,13.77
2018-05-23T00:56:05.251Z,13.73
2018-05-23T00:57:09.983Z,13.69
2018-05-23T00:58:15.723Z,13.67
2018-05-23T00:59:20.818Z,13.69
2018-05-23T01:00:26.072Z,13.76
2018-05-23T01:01:31.626Z,13.84
2018-05-23T01:02:36.480Z,13.91
2018-05-23T01:03:41.581Z,13.96
2018-05-23T01:04:46.192Z,14.02
2018-05-23T01:05:51.596Z,14.05
2018-05-23T01:06:56.957Z,14.11
2018-05-23T01:08:02.753Z,14.14
2018-05-23T01:09:08.369Z,14.13
2018-05-23T01:10:13.514Z,14.20
2018-05-23T01:11:19.690Z,14.24
2018-05-23T01:12:24.390Z,14.21
2018-05-23T01:13:30.795Z,14.13
2018-05-23T01:14:37.114Z,14.05
2018-05-23T01:15:42.201Z,14.09
2018-05-23T01:16:46.808Z,14.15
2018-05-23T01:17:52.172Z,14.06
2018-05-23T01:18:56.993Z,14.05
2018-05-23T01:20:01.507Z,13.99
2018-05-23T01:21:06.650Z,13.96
2018-05-23T01:22:11.749Z,13.97
2018-05-23T01:23:17.328Z,13.97
2018-05-23T01:24:22.763Z,13.94
2018-05-23T01:25:28.510Z,13.98
2018-05-23T01:26:33.785Z,14.01
2018-05-23T01:27:39.576Z,14.04
2018-05-23T01:28:44.285Z,14.06
2018-05-23T01:29:48.816Z,14.09
2018-05-23T01:30:53.296Z,14.12
2018-05-23T01:31:57.938Z,14.13
2018-05-23T01:33:02.719Z,14.14
2018-05-23T01:34:08.176Z,14.13
2018-05-23T01:35:13.076Z,14.12
2018-05-23T01:36:17.669Z,14.10
2018-05-23T01:37:23.413Z,14.07
2018-05-23T01:38:27.921Z,14.10
2018-05-23T01:39:33.467Z,14.08
2018-05-23T01:40:38.056Z,14.07
2018-05-23T01:41:42.621Z,14.09
2018-05-23T01:42:48.350Z,14.13
2018-05-23T01:43:52.884Z,14.06
2018-05-23T01:44:57.453Z,14.01
2018-05-23T01:46:02.652Z,14.02
2018-05-23T01:47:07.168Z,14.07
2018-05-23T01:48:11.687Z,14.06
2018-05-23T01:49:21.473Z,14.06
2018-05-23T01:50:26.091Z,14.06
2018-05-23T01:51:30.655Z,14.07
2018-05-23T01:52:35.555Z,14.11
2018-05-23T01:53:40.116Z,14.11
2018-05-23T01:54:44.667Z,14.11
2018-05-23T01:55:49.201Z,14.00
2018-05-23T01:56:53.739Z,13.99
2018-05-23T01:57:58.249Z,13.95
2018-05-23T01:59:03.078Z,13.89
2018-05-23T02:00:07.617Z,13.93
2018-05-23T02:01:12.208Z,13.91
2018-05-23T02:02:16.752Z,13.87
2018-05-23T02:03:21.341Z,13.86
2018-05-23T02:04:26.304Z,13.77
2018-05-23T02:05:31.226Z,13.71
2018-05-23T02:06:35.732Z,13.72
2018-05-23T02:07:40.862Z,13.76
2018-05-23T02:08:46.863Z,13.81
2018-05-23T02:09:51.696Z,13.77
2018-05-23T02:10:56.349Z,13.77
2018-05-23T02:12:01.269Z,13.79
2018-05-23T02:13:05.836Z,13.86
2018-05-23T02:14:10.514Z,13.90
2018-05-23T02:15:15.259Z,13.92
2018-05-23T02:16:19.832Z,13.95
2018-05-23T02:17:24.420Z,13.97
2018-05-23T02:18:29.332Z,14.00
2018-05-23T02:19:33.955Z,13.97
2018-05-23T02:20:38.667Z,14.01
2018-05-23T02:21:43.518Z,14.08
2018-05-23T02:22:48.157Z,14.10
2018-05-23T02:23:53.669Z,14.00
2018-05-23T02:24:58.482Z,13.88
2018-05-23T02:26:04.722Z,13.89
2018-05-23T02:27:09.886Z,13.78
2018-05-23T02:28:14.565Z,13.72
2018-05-23T02:29:19.437Z,13.80
2018-05-23T02:30:24.090Z,13.82
2018-05-23T02:31:30.278Z,13.81
2018-05-23T02:32:35.238Z,13.82
2018-05-23T02:33:39.769Z,13.83
2018-05-23T02:34:45.368Z,13.88
2018-05-23T02:35:51.047Z,13.92
2018-05-23T02:36:56.996Z,13.89
2018-05-23T02:38:01.892Z,13.94
2018-05-23T02:39:06.554Z,13.93
2018-05-23T02:40:11.119Z,13.94
2018-05-23T02:41:16.665Z,13.93
2018-05-23T02:42:21.327Z,13.90
2018-05-23T02:43:26.129Z,13.83
2018-05-23T02:44:32.208Z,13.87
2018-05-23T02:45:37.581Z,13.86
2018-05-23T02:46:42.140Z,13.83
2018-05-23T02:47:47.132Z,13.79
2018-05-23T02:48:51.683Z,13.67
2018-05-23T02:49:57.328Z,13.64
2018-05-23T02:51:03.694Z,13.62
2018-05-23T02:52:08.546Z,13.59
2018-05-23T02:53:13.472Z,13.53
2018-05-23T02:54:18.044Z,13.53
2018-05-23T02:55:23.728Z,13.49
2018-05-23T02:56:28.378Z,13.46
2018-05-23T02:57:34.090Z,13.47
2018-05-23T02:58:38.697Z,13.53
2018-05-23T02:59:43.269Z,13.53
2018-05-23T03:00:48.478Z,13.55
2018-05-23T03:01:53.053Z,13.64
2018-05-23T03:02:57.659Z,13.69
2018-05-23T03:04:02.572Z,13.69
2018-05-23T03:05:07.160Z,13.76
2018-05-23T03:06:11.745Z,13.83
2018-05-23T03:07:16.836Z,13.87
2018-05-23T03:08:21.423Z,13.90
2018-05-23T03:09:25.999Z,13.85
2018-05-23T03:10:31.188Z,13.79
2018-05-23T03:11:35.905Z,13.78
2018-05-23T03:12:40.444Z,13.77
2018-05-23T03:13:45.102Z,13.77
2018-05-23T03:14:49.977Z,13.79
2018-05-23T03:15:55.002Z,13.81
2018-05-23T03:16:59.887Z,13.82
2018-05-23T03:18:04.625Z,13.81
2018-05-23T03:19:09.652Z,13.85
2018-05-23T03:20:15.265Z,13.88
2018-05-23T03:21:19.823Z,13.90
2018-05-23T03:22:25.168Z,13.86
2018-05-23T03:23:29.737Z,13.76
2018-05-23T03:24:34.395Z,13.72
2018-05-23T03:25:41.017Z,13.70
2018-05-23T03:26:45.541Z,13.62
2018-05-23T03:27:50.121Z,13.57
2018-05-23T03:28:55.140Z,13.57
2018-05-23T03:29:59.714Z,13.53
2018-05-23T03:31:04.769Z,13.41
2018-05-23T03:32:09.507Z,13.41
2018-05-23T03:33:15.224Z,13.48
2018-05-23T03:34:19.781Z,13.58
2018-05-23T03:35:24.708Z,13.53
2018-05-23T03:36:30.151Z,13.45
2018-05-23T03:37:34.988Z,13.38
2018-05-23T03:38:39.804Z,13.31
2018-05-23T03:39:44.385Z,13.29
2018-05-23T03:40:48.982Z,13.26
2018-05-23T03:41:53.938Z,13.30
2018-05-23T03:42:58.529Z,13.35
2018-05-23T03:44:04.208Z,13.37
2018-05-23T03:45:09.056Z,13.43
2018-05-23T03:46:13.644Z,13.49
2018-05-23T03:47:20.083Z,13.56
2018-05-23T03:48:25.914Z,13.58
2018-05-23T03:49:30.517Z,13.59
2018-05-23T03:50:36.960Z,13.58
2018-05-23T03:51:42.017Z,13.58
2018-05-23T03:52:46.634Z,13.56
2018-05-23T03:53:52.367Z,13.54
2018-05-23T03:54:57.014Z,13.55
2018-05-23T03:56:02.126Z,13.59
2018-05-23T03:57:06.770Z,13.54
2018-05-23T03:58:12.305Z,13.54
2018-05-23T03:59:16.870Z,13.48
2018-05-23T04:02:34.449Z,13.50
2018-05-23T04:03:44.390Z,13.42
2018-05-23T04:06:55.138Z,13.44
2018-05-23T04:08:01.215Z,13.53
2018-05-23T04:09:06.539Z,13.49
2018-05-23T04:10:12.173Z,13.53
2018-05-23T04:11:16.762Z,13.56
2018-05-23T04:12:21.652Z,13.52
2018-05-23T04:13:26.272Z,13.49
2018-05-23T04:14:32.342Z,13.48
2018-05-23T04:15:36.897Z,13.49
2018-05-23T04:16:41.751Z,13.52
2018-05-23T04:17:47.417Z,13.56
2018-05-23T04:18:52.348Z,13.63
2018-05-23T04:19:57.113Z,13.64
2018-05-23T04:21:02.146Z,13.68
2018-05-23T04:22:06.684Z,13.68
2018-05-23T04:23:13.761Z,13.59
2018-05-23T04:24:18.710Z,13.52
2018-05-23T04:25:23.731Z,13.58
2018-05-23T04:26:29.357Z,13.69
2018-05-23T04:27:34.618Z,13.77
2018-05-23T04:28:39.180Z,13.77
2018-05-23T04:29:44.529Z,13.71
2018-05-23T04:30:49.116Z,13.68
2018-05-23T04:31:55.003Z,13.70
2018-05-23T04:32:59.647Z,13.76
2018-05-23T04:34:04.213Z,13.83
2018-05-23T04:35:09.314Z,13.86
2018-05-23T04:36:14.835Z,13.78
2018-05-23T04:37:19.784Z,13.80
2018-05-23T04:38:24.676Z,13.77
2018-05-23T04:39:29.809Z,13.80
2018-05-23T04:40:34.420Z,13.76
2018-05-23T04:41:40.258Z,13.81
2018-05-23T04:42:44.784Z,13.84
2018-05-23T04:43:50.463Z,13.91
2018-05-23T04:44:55.353Z,13.96
2018-05-23T04:45:59.933Z,14.04
2018-05-23T04:47:04.950Z,14.07
2018-05-23T04:48:09.596Z,13.97
2018-05-23T04:49:14.138Z,13.93
2018-05-23T04:50:18.805Z,13.78
2018-05-23T04:51:24.714Z,13.71
2018-05-23T04:52:29.515Z,13.82
2018-05-23T04:53:34.309Z,13.89
2018-05-23T04:54:38.882Z,13.89
2018-05-23T04:55:43.703Z,13.90
2018-05-23T04:56:48.380Z,13.97
2018-05-23T04:57:53.769Z,14.05
2018-05-23T04:58:58.442Z,14.15
2018-05-23T05:00:03.072Z,14.19
2018-05-23T05:01:07.827Z,14.11
2018-05-23T05:02:12.468Z,14.11
2018-05-23T05:03:18.003Z,14.09
2018-05-23T05:04:22.966Z,14.18
2018-05-23T05:05:28.465Z,14.30
2018-05-23T05:06:33.165Z,14.39
2018-05-23T05:07:37.773Z,14.40
2018-05-23T05:08:43.544Z,14.28
2018-05-23T05:09:48.143Z,14.09
2018-05-23T05:10:53.000Z,13.91
2018-05-23T05:11:57.553Z,13.85
2018-05-23T05:13:02.524Z,13.86
2018-05-23T05:14:07.155Z,14.00
2018-05-23T05:15:13.615Z,14.10
2018-05-23T05:16:18.445Z,14.18
2018-05-23T05:17:23.334Z,14.24
2018-05-23T05:18:27.943Z,14.30
2018-05-23T05:19:33.436Z,14.28
2018-05-23T05:20:38.549Z,14.29
2018-05-23T05:21:43.225Z,14.36
2018-05-23T05:22:47.909Z,14.44
2018-05-23T05:23:53.528Z,14.52
2018-05-23T05:24:58.114Z,14.62
2018-05-23T05:26:03.610Z,14.64
2018-05-23T05:27:08.583Z,14.65
2018-05-23T05:28:13.348Z,14.64
2018-05-23T05:29:18.306Z,14.70
2018-05-23T05:30:22.889Z,14.76
2018-05-23T05:31:27.759Z,14.80
2018-05-23T05:32:32.394Z,14.90
2018-05-23T05:33:37.317Z,15.00
2018-05-23T05:34:41.861Z,15.08
2018-05-23T05:35:46.656Z,15.08
2018-05-23T05:36:51.160Z,15.09
2018-05-23T05:37:57.079Z,15.08
2018-05-23T05:39:01.822Z,14.93
2018-05-23T05:40:07.131Z,14.64
2018-05-23T05:41:13.372Z,14.64
2018-05-23T05:42:18.961Z,14.73
2018-05-23T05:43:24.184Z,14.76
2018-05-23T05:44:29.297Z,14.82
2018-05-23T05:45:34.329Z,14.77
2018-05-23T05:46:39.025Z,14.80
2018-05-23T05:47:43.722Z,14.85
2018-05-23T05:48:48.889Z,14.87
2018-05-23T05:49:53.816Z,14.91
2018-05-23T05:50:58.650Z,14.96
2018-05-23T05:52:03.809Z,15.01
2018-05-23T05:53:10.205Z,14.99
2018-05-23T05:54:15.420Z,14.99
2018-05-23T05:55:21.255Z,15.01
2018-05-23T05:56:27.250Z,15.03
2018-05-23T05:57:31.854Z,15.05
2018-05-23T05:58:36.997Z,15.03
2018-05-23T05:59:42.215Z,15.10
2018-05-23T06:00:47.008Z,15.15
2018-05-23T06:01:51.884Z,15.13
2018-05-23T06:02:57.781Z,15.13
2018-05-23T06:04:02.609Z,15.15
2018-05-23T06:05:08.294Z,15.04
2018-05-23T06:06:13.369Z,15.08
2018-05-23T06:07:18.002Z,15.16
2018-05-23T06:08:22.880Z,15.24
2018-05-23T06:09:28.722Z,15.27
2018-05-23T06:10:33.967Z,15.24
2018-05-23T06:11:38.535Z,15.21
2018-05-23T06:12:43.497Z,15.28
2018-05-23T06:13:48.195Z,15.16
2018-05-23T06:14:54.469Z,15.22
2018-05-23T06:15:59.148Z,15.26
2018-05-23T06:17:04.096Z,15.36
2018-05-23T06:18:08.715Z,15.37
2018-05-23T06:19:13.365Z,15.40
2018-05-23T06:20:19.218Z,15.45
2018-05-23T06:21:24.858Z,15.47
2018-05-23T06:22:29.416Z,15.48
2018-05-23T06:23:33.921Z,15.50
2018-05-23T06:24:38.749Z,15.56
2018-05-23T06:25:43.315Z,15.75
2018-05-23T06:26:47.798Z,15.83
2018-05-23T06:27:52.567Z,15.82
2018-05-23T06:28:57.805Z,15.86
2018-05-23T06:30:02.319Z,16.00
2018-05-23T06:31:06.876Z,16.08
2018-05-23T06:32:11.717Z,16.08
2018-05-23T06:33:16.284Z,16.12
2018-05-23T06:34:21.096Z,16.17
2018-05-23T06:35:26.107Z,16.18
2018-05-23T06:36:30.752Z,16.15
2018-05-23T06:37:35.263Z,16.05
2018-05-23T06:38:39.860Z,15.98
2018-05-23T06:39:44.980Z,15.94
2018-05-23T06:40:49.927Z,15.89
2018-05-23T06:41:57.446Z,15.81
2018-05-23T06:43:03.044Z,15.67
2018-05-23T06:44:07.696Z,15.63
2018-05-23T06:45:13.824Z,15.74
2018-05-23T06:46:18.382Z,15.78
2018-05-23T06:47:24.258Z,15.73
2018-05-23T06:48:32.713Z,15.65
2018-05-23T06:49:38.325Z,15.66
2018-05-23T06:50:43.373Z,15.71
2018-05-23T06:51:48.360Z,15.70
2018-05-23T06:52:53.705Z,15.75
2018-05-23T06:53:59.067Z,15.82
2018-05-23T06:55:04.716Z,15.97
2018-05-23T06:56:10.476Z,16.14
2018-05-23T06:57:15.665Z,16.28
2018-05-23T06:58:23.219Z,16.29
2018-05-23T06:59:29.585Z,16.32
2018-05-23T07:00:35.366Z,16.45
2018-05-23T07:01:41.144Z,16.54
2018-05-23T07:02:47.259Z,16.56
2018-05-23T07:03:54.709Z,16.62
2018-05-23T07:04:59.974Z,16.65
2018-05-23T07:06:05.343Z,16.61
2018-05-23T07:07:12.598Z,16.60
2018-05-23T07:08:17.943Z,16.66
2018-05-23T07:09:22.783Z,16.61
2018-05-23T07:10:29.255Z,16.50
2018-05-23T07:11:36.071Z,16.58
2018-05-23T07:12:40.650Z,16.80
2018-05-23T07:13:46.022Z,16.94
2018-05-23T07:14:51.171Z,17.05
2018-05-23T07:15:57.122Z,17.14
2018-05-23T07:17:02.837Z,17.29
2018-05-23T07:18:08.980Z,17.32
2018-05-23T07:19:15.849Z,17.34
2018-05-23T07:20:20.772Z,17.42
2018-05-23T07:21:26.446Z,17.45
2018-05-23T07:22:31.099Z,17.55
2018-05-23T07:23:36.734Z,17.70
2018-05-23T07:24:41.717Z,17.75
2018-05-23T07:25:47.371Z,17.75
2018-05-23T07:26:52.011Z,17.77
2018-05-23T07:27:58.616Z,17.82
2018-05-23T07:29:03.248Z,17.96
2018-05-23T07:30:07.965Z,18.15
2018-05-23T07:31:13.104Z,18.26
2018-05-23T07:32:17.671Z,18.42
2018-05-23T07:33:23.263Z,18.37
2018-05-23T07:34:27.893Z,18.37
2018-05-23T07:35:32.840Z,18.43
2018-05-23T07:36:37.421Z,18.69
2018-05-23T07:37:44.305Z,18.72
2018-05-23T07:38:49.297Z,18.88
2018-05-23T07:39:54.024Z,18.96
2018-05-23T07:40:58.621Z,19.17
2018-05-23T07:42:03.770Z,19.21
2018-05-23T07:43:08.341Z,19.45
2018-05-23T07:44:14.768Z,19.35
2018-05-23T07:45:19.917Z,19.39
2018-05-23T07:46:26.014Z,19.54
2018-05-23T07:47:30.549Z,19.55
2018-05-23T07:48:35.068Z,19.42
2018-05-23T07:49:39.560Z,19.45
2018-05-23T07:50:44.347Z,19.68
2018-05-23T07:51:48.801Z,19.72
2018-05-23T07:52:53.289Z,19.88
2018-05-23T07:53:57.797Z,19.91
2018-05-23T07:55:03.928Z,19.96
2018-05-23T07:56:08.459Z,19.99
2018-05-23T07:57:13.237Z,20.18
2018-05-23T07:58:17.804Z,20.28
2018-05-23T07:59:23.048Z,20.37
2018-05-23T08:00:27.544Z,20.31
2018-05-23T08:01:32.203Z,20.44
2018-05-23T08:02:36.996Z,20.38
2018-05-23T08:03:41.855Z,20.46
2018-05-23T08:04:46.398Z,20.50
2018-05-23T08:05:50.965Z,20.32
2018-05-23T08:06:55.480Z,20.05
2018-05-23T08:08:00.245Z,20.17
2018-05-23T08:09:04.974Z,20.41
2018-05-23T08:10:10.095Z,20.55
2018-05-23T08:11:14.664Z,20.70
2018-05-23T08:12:19.336Z,20.61
2018-05-23T08:13:24.239Z,20.83
2018-05-23T08:14:29.066Z,20.78
2018-05-23T08:15:33.681Z,20.91
2018-05-23T08:16:38.720Z,21.00
2018-05-23T08:17:43.352Z,21.09
2018-05-23T08:18:47.960Z,21.02
2018-05-23T08:19:52.626Z,21.04
2018-05-23T08:20:57.248Z,21.26
2018-05-23T08:22:02.035Z,21.44
2018-05-23T08:23:06.962Z,21.23
2018-05-23T08:24:11.623Z,21.11
2018-05-23T08:25:16.205Z,20.81
2018-05-23T08:26:20.867Z,20.50
2018-05-23T08:27:25.453Z,20.57
2018-05-23T08:28:30.037Z,20.69
2018-05-23T08:29:35.912Z,20.83
2018-05-23T08:30:41.080Z,20.82
2018-05-23T08:31:46.522Z,20.69
2018-05-23T08:32:51.497Z,20.84
2018-05-23T08:33:56.564Z,20.58
2018-05-23T08:35:01.186Z,20.47
2018-05-23T08:36:06.312Z,20.55
2018-05-23T08:37:11.452Z,20.47
2018-05-23T08:38:16.687Z,20.54
2018-05-23T08:39:21.952Z,20.41
2018-05-23T08:40:26.559Z,20.34
2018-05-23T08:41:31.216Z,20.39
2018-05-23T08:42:36.174Z,20.41
2018-05-23T08:43:41.350Z,20.16
2018-05-23T08:44:47.065Z,20.10
2018-05-23T08:45:52.424Z,20.12
2018-05-23T08:46:57.629Z,20.04
2018-05-23T08:48:02.582Z,20.01
2018-05-23T08:49:07.999Z,19.99
2018-05-23T08:50:12.652Z,20.20
2018-05-23T08:51:17.912Z,20.32
2018-05-23T08:52:23.996Z,20.22
2018-05-23T08:53:30.053Z,20.23
2018-05-23T08:54:34.927Z,20.17
2018-05-23T08:55:40.588Z,20.22
2018-05-23T08:56:46.119Z,20.16
2018-05-23T08:57:52.150Z,20.15
2018-05-23T08:58:57.146Z,20.34
2018-05-23T09:00:01.930Z,20.36
2018-05-23T09:01:06.602Z,20.25
2018-05-23T09:02:11.144Z,20.21
2018-05-23T09:03:17.254Z,20.22
2018-05-23T09:04:21.962Z,20.07
2018-05-23T09:05:26.564Z,20.06
2018-05-23T09:06:31.113Z,19.91
2018-05-23T09:07:37.939Z,19.84
2018-05-23T09:08:43.445Z,19.81
2018-05-23T09:09:47.974Z,19.69
2018-05-23T09:10:52.487Z,19.34
2018-05-23T09:11:56.987Z,19.31
2018-05-23T09:13:01.529Z,19.42
2018-05-23T09:14:06.367Z,19.55
2018-05-23T09:15:10.943Z,19.34
2018-05-23T09:16:15.762Z,19.14
2018-05-23T09:17:22.861Z,19.27
2018-05-23T09:18:27.365Z,19.13
2018-05-23T09:19:31.922Z,19.15
2018-05-23T09:20:36.742Z,19.18
2018-05-23T09:21:41.249Z,19.28
2018-05-23T09:22:45.820Z,19.31
2018-05-23T09:23:50.375Z,19.30
2018-05-23T09:24:54.873Z,19.08
2018-05-23T09:25:59.457Z,19.06
2018-05-23T09:27:04.382Z,18.84
2018-05-23T09:28:08.954Z,18.69
2018-05-23T09:29:13.495Z,18.73
2018-05-23T09:30:18.137Z,18.71
2018-05-23T09:31:22.742Z,18.62
2018-05-23T09:32:27.331Z,18.66
2018-05-23T09:33:32.178Z,18.59
2018-05-23T09:34:36.865Z,18.64
2018-05-23T09:35:41.539Z,18.66
2018-05-23T09:36:46.032Z,18.71
2018-05-23T09:37:51.119Z,18.74
2018-05-23T09:38:55.758Z,18.82
2018-05-23T09:40:00.649Z,18.89
2018-05-23T09:41:05.813Z,18.98
2018-05-23T09:42:10.377Z,19.07
2018-05-23T09:43:14.915Z,18.88
2018-05-23T09:44:19.581Z,18.86
2018-05-23T09:45:24.248Z,18.89
2018-05-23T09:46:30.112Z,18.91
2018-05-23T09:47:35.749Z,18.94
2018-05-23T09:48:40.735Z,18.89
2018-05-23T09:49:45.781Z,18.87
2018-05-23T09:50:50.521Z,18.84
2018-05-23T09:51:55.414Z,18.82
2018-05-23T09:53:00.326Z,18.96
2018-05-23T09:54:04.951Z,19.08
2018-05-23T09:55:09.634Z,19.16
2018-05-23T09:56:14.356Z,19.20
2018-05-23T09:57:18.987Z,19.30
2018-05-23T09:58:23.717Z,19.30
2018-05-23T09:59:28.372Z,19.35
2018-05-23T10:00:33.123Z,19.16
2018-05-23T10:01:37.896Z,18.80
2018-05-23T10:02:42.473Z,18.72
2018-05-23T10:03:46.971Z,18.82
2018-05-23T10:04:51.904Z,18.97
2018-05-23T10:05:56.351Z,18.98
2018-05-23T10:07:00.917Z,19.10
2018-05-23T10:08:05.421Z,19.11
2018-05-23T10:09:09.986Z,19.10
2018-05-23T10:10:14.607Z,19.21
2018-05-23T10:11:19.461Z,19.30
2018-05-23T10:12:23.900Z,19.37
2018-05-23T10:13:28.425Z,19.34
2018-05-23T10:14:32.958Z,19.32
2018-05-23T10:15:37.484Z,19.28
2018-05-23T10:16:41.948Z,19.24
2018-05-23T10:17:46.801Z,19.27
2018-05-23T10:18:51.422Z,19.40
2018-05-23T10:19:55.958Z,19.53
2018-05-23T10:21:00.629Z,19.60
2018-05-23T10:22:05.184Z,19.61
2018-05-23T10:23:09.728Z,19.72
2018-05-23T10:24:14.595Z,19.86
2018-05-23T10:25:19.102Z,19.87
2018-05-23T10:26:23.706Z,19.91
2018-05-23T10:27:28.216Z,20.01
2018-05-23T10:28:32.658Z,20.17
2018-05-23T10:29:37.184Z,20.24
2018-05-23T10:30:42.196Z,20.37
2018-05-23T10:31:46.725Z,20.26
2018-05-23T10:32:51.256Z,20.44
2018-05-23T10:33:56.110Z,20.53
2018-05-23T10:35:00.941Z,20.56
2018-05-23T10:36:07.458Z,20.57
2018-05-23T10:37:12.877Z,20.50
2018-05-23T10:38:18.657Z,20.60
2018-05-23T10:39:25.388Z,20.66
2018-05-23T10:40:30.663Z,20.69
2018-05-23T10:41:36.845Z,20.48
2018-05-23T10:42:42.988Z,20.45
2018-05-23T10:43:50.268Z,20.51
2018-05-23T10:44:56.414Z,20.52
2018-05-23T10:46:01.490Z,20.62
2018-05-23T10:47:07.373Z,20.60
2018-05-23T10:48:13.305Z,20.72
2018-05-23T10:49:17.976Z,20.91
2018-05-23T10:50:23.389Z,20.97
2018-05-23T10:51:30.270Z,21.05
2018-05-23T10:52:34.859Z,21.03
2018-05-23T10:53:41.789Z,21.13
2018-05-23T10:54:46.542Z,21.39
2018-05-23T10:55:51.397Z,21.47
2018-05-23T10:56:57.413Z,21.48
2018-05-23T10:58:04.931Z,21.61
2018-05-23T10:59:11.713Z,21.57
2018-05-23T11:00:16.690Z,22.00
2018-05-23T11:01:21.449Z,21.96
2018-05-23T11:02:27.152Z,22.08
2018-05-23T11:03:32.098Z,22.19
2018-05-23T11:04:37.403Z,22.57
2018-05-23T11:05:42.543Z,22.72
2018-05-23T11:06:47.086Z,22.60
2018-05-23T11:07:52.995Z,22.76
2018-05-23T11:08:57.964Z,22.85
2018-05-23T11:10:02.568Z,22.96
2018-05-23T11:11:07.279Z,23.03
2018-05-23T11:12:11.817Z,23.01
2018-05-23T11:13:16.609Z,23.07
2018-05-23T11:14:21.146Z,23.01
2018-05-23T11:15:26.040Z,22.77
2018-05-23T11:16:30.649Z,22.75
2018-05-23T11:17:35.233Z,22.61
2018-05-23T11:18:39.750Z,22.29
2018-05-23T11:19:44.526Z,21.54
2018-05-23T11:20:49.098Z,21.15
2018-05-23T11:21:53.948Z,21.10
2018-05-23T11:22:58.568Z,21.34
2018-05-23T11:24:03.321Z,21.35
2018-05-23T11:25:08.661Z,21.69
2018-05-23T11:26:13.341Z,21.80
2018-05-23T11:27:18.106Z,21.90
2018-05-23T11:28:23.437Z,21.82
2018-05-23T11:29:28.266Z,21.73
2018-05-23T11:30:33.111Z,21.90
2018-05-23T11:31:37.833Z,22.11
2018-05-23T11:32:42.775Z,21.92
2018-05-23T11:33:47.646Z,22.10
2018-05-23T11:34:52.874Z,22.10
2018-05-23T11:35:57.540Z,22.26
2018-05-23T11:37:02.286Z,22.61
2018-05-23T11:38:06.973Z,22.66
2018-05-23T11:39:11.753Z,22.65
2018-05-23T11:40:16.480Z,22.76
2018-05-23T11:41:21.691Z,22.77
2018-05-23T11:42:26.494Z,22.24
2018-05-23T11:43:31.473Z,22.56
2018-05-23T11:44:36.386Z,22.72
2018-05-23T11:45:41.372Z,22.69
2018-05-23T11:46:46.186Z,22.21
2018-05-23T11:47:51.263Z,22.03
2018-05-23T11:48:56.183Z,22.27
2018-05-23T11:50:01.097Z,22.50
2018-05-23T11:51:05.873Z,22.49
2018-05-23T11:52:10.758Z,22.85
2018-05-23T11:53:15.615Z,23.03
2018-05-23T11:54:20.886Z,22.80
2018-05-23T11:55:25.690Z,23.02
2018-05-23T11:56:30.508Z,23.21
2018-05-23T11:57:35.280Z,22.76
2018-05-23T11:58:39.956Z,22.53
2018-05-23T11:59:44.630Z,22.96
2018-05-23T12:00:49.643Z,23.31
2018-05-23T12:01:54.503Z,23.56
2018-05-23T12:02:59.242Z,23.56
2018-05-23T12:04:03.939Z,23.57
2018-05-23T12:05:08.657Z,23.53
2018-05-23T12:06:13.813Z,23.26
2018-05-23T12:07:20.103Z,23.02
2018-05-23T12:08:24.891Z,23.10
2018-05-23T12:09:29.840Z,23.36
2018-05-23T12:10:35.053Z,23.11
2018-05-23T12:11:39.785Z,23.02
2018-05-23T12:12:44.750Z,22.97
2018-05-23T12:13:49.941Z,22.91
2018-05-23T12:14:54.676Z,22.97
2018-05-23T12:15:59.428Z,23.16
2018-05-23T12:17:04.607Z,23.39
2018-05-23T12:18:09.252Z,23.52
2018-05-23T12:19:14.041Z,23.35
2018-05-23T12:20:19.172Z,23.53
2018-05-23T12:21:23.831Z,23.39
2018-05-23T12:22:28.477Z,23.52
2018-05-23T12:23:33.379Z,23.73
2018-05-23T12:24:38.658Z,23.91
2018-05-23T12:25:43.367Z,23.76
2018-05-23T12:26:48.399Z,23.97
2018-05-23T12:27:53.122Z,24.10
2018-05-23T12:28:58.040Z,23.99
2018-05-23T12:30:02.781Z,24.14
2018-05-23T12:31:07.609Z,24.17
2018-05-23T12:32:12.260Z,24.12
2018-05-23T12:33:17.226Z,24.35
2018-05-23T12:34:21.884Z,24.72
2018-05-23T12:35:26.655Z,24.79
2018-05-23T12:36:32.372Z,24.36
2018-05-23T12:37:37.078Z,24.00
2018-05-23T12:38:41.879Z,23.85
2018-05-23T12:39:47.858Z,23.73
2018-05-23T12:40:52.828Z,23.84
2018-05-23T12:41:58.285Z,23.81
2018-05-23T12:43:04.884Z,23.92
2018-05-23T12:44:09.610Z,24.09
2018-05-23T12:45:14.478Z,24.25
2018-05-23T12:46:19.645Z,24.12
2018-05-23T12:47:26.702Z,24.30
2018-05-23T12:48:33.725Z,24.21
2018-05-23T12:49:40.232Z,24.24
2018-05-23T12:50:46.420Z,24.28
2018-05-23T12:53:08.570Z,24.10
2018-05-23T12:54:13.944Z,24.10
2018-05-23T12:55:20.085Z,24.27
2018-05-23T12:56:24.787Z,24.28
2018-05-23T12:57:29.881Z,24.32
2018-05-23T12:58:36.912Z,24.35
2018-05-23T12:59:41.779Z,24.30
2018-05-23T13:00:46.508Z,24.42
2018-05-23T13:01:52.435Z,24.44
2018-05-23T13:02:58.591Z,24.37
2018-05-23T13:04:04.401Z,24.18
2018-05-23T13:05:10.758Z,24.29
2018-05-23T13:06:16.373Z,24.35
2018-05-23T13:07:21.266Z,24.51
2018-05-23T13:08:27.756Z,24.72
2018-05-23T13:09:32.978Z,24.94
2018-05-23T13:10:39.233Z,25.19
2018-05-23T13:11:45.571Z,25.66
2018-05-23T13:12:50.858Z,25.57
2018-05-23T13:13:55.683Z,25.46
2018-05-23T13:15:00.492Z,25.39
2018-05-23T13:16:05.289Z,25.16
2018-05-23T13:17:10.329Z,25.27
2018-05-23T13:18:16.445Z,25.57
2018-05-23T13:19:21.244Z,25.63
2018-05-23T13:20:26.383Z,25.48
2018-05-23T13:21:31.506Z,24.93
2018-05-23T13:22:37.378Z,25.08
2018-05-23T13:23:43.035Z,25.15
2018-05-23T13:24:48.876Z,25.08
2018-05-23T13:25:53.665Z,25.01
2018-05-23T13:26:58.495Z,24.94
2018-05-23T13:28:03.434Z,24.96
2018-05-23T13:29:08.366Z,24.91
2018-05-23T13:30:13.870Z,24.93
2018-05-23T13:31:20.256Z,24.78
2018-05-23T13:32:26.626Z,24.64
2018-05-23T13:33:31.415Z,24.70
2018-05-23T13:34:36.456Z,24.59
2018-05-23T13:35:42.317Z,24.56
2018-05-23T13:36:48.616Z,24.77
2018-05-23T13:37:54.232Z,24.75
2018-05-23T13:38:59.027Z,24.87
2018-05-23T13:40:03.935Z,24.96
2018-05-23T13:41:08.729Z,24.97
2018-05-23T13:42:13.529Z,24.91
2018-05-23T13:43:18.481Z,24.78
2018-05-23T13:44:25.039Z,24.96
2018-05-23T13:45:29.951Z,24.13
2018-05-23T13:46:35.013Z,23.97
2018-05-23T13:47:39.865Z,24.05
2018-05-23T13:48:44.736Z,24.13
2018-05-23T13:49:49.520Z,24.22
2018-05-23T13:50:54.609Z,24.19
2018-05-23T13:51:59.396Z,24.29
2018-05-23T13:53:04.310Z,23.95
2018-05-23T13:54:09.135Z,23.92
2018-05-23T13:55:14.138Z,23.93
2018-05-23T13:56:18.833Z,23.56
2018-05-23T13:57:25.079Z,23.71
2018-05-23T13:58:30.329Z,24.04
2018-05-23T13:59:38.235Z,24.09
2018-05-23T14:00:45.101Z,24.16
2018-05-23T14:01:50.455Z,24.29
2018-05-23T14:02:55.340Z,24.15
2018-05-23T14:04:00.561Z,24.16